Time;durP1;ratioP1;P1;durP2;ratioP2;P2;SDS_P1;SDS_P2;PMS_P1;PMS_P2;Temp;Humidity;BMP_temperature;BMP_pressure;BME280_temperature;BME280_humidity;BME280_pressure;Samples;Min_cycle;Max_cycle;Signal;HPM_P1;HPM_P2
2021/09/22 00:00:19;;;;;;;6.70;5.78;;;;;;;;;;5095763;28;20036;-62
2021/09/22 00:02:45;;;;;;;5.97;5.07;;;;;;;;;;5096960;28;20074;-62
2021/09/22 00:05:11;;;;;;;8.68;5.25;;;;;;;;;;5096843;28;20040;-62
2021/09/22 00:07:37;;;;;;;6.13;5.28;;;;;;;;;;5097275;28;20346;-62
2021/09/22 00:10:04;;;;;;;5.82;5.28;;;;;;;;;;5097086;28;20448;-62
2021/09/22 00:12:29;;;;;;;7.15;5.38;;;;;;;;;;5096911;28;20024;-62
2021/09/22 00:14:55;;;;;;;6.78;5.28;;;;;;;;;;5096902;28;20024;-62
2021/09/22 00:17:20;;;;;;;5.88;4.72;;;;;;;;;;5097129;28;20103;-62
2021/09/22 00:19:46;;;;;;;5.78;4.80;;;;;;;;;;5095176;28;20039;-62
2021/09/22 00:22:16;;;;;;;6.05;5.50;;;;;;;;;;5096576;28;20395;-62
2021/09/22 00:24:41;;;;;;;5.93;5.40;;;;;;;;;;5096780;28;20059;-62
2021/09/22 00:27:07;;;;;;;7.25;5.75;;;;;;;;;;5096364;28;20082;-62
2021/09/22 00:29:33;;;;;;;6.10;4.90;;;;;;;;;;5095377;28;20039;-62
2021/09/22 00:31:59;;;;;;;5.53;4.25;;;;;;;;;;5095631;28;20031;-62
2021/09/22 00:34:25;;;;;;;4.25;3.50;;;;;;;;;;5096421;28;20028;-62
2021/09/22 00:36:51;;;;;;;3.40;3.20;;;;;;;;;;5096141;28;20061;-62
2021/09/22 00:39:17;;;;;;;3.45;3.17;;;;;;;;;;5095040;28;20020;-62
2021/09/22 00:41:43;;;;;;;3.30;3.05;;;;;;;;;;5096139;28;20047;-62
2021/09/22 00:44:08;;;;;;;4.35;3.40;;;;;;;;;;5095872;28;20078;-62
2021/09/22 00:46:34;;;;;;;3.55;2.90;;;;;;;;;;5094730;28;20032;-62
2021/09/22 00:49:00;;;;;;;3.15;2.95;;;;;;;;;;5096428;28;20341;-62
2021/09/22 00:51:31;;;;;;;;;;;;;;;;;;5095048;28;20020;-62
2021/09/22 00:53:57;;;;;;;2.95;2.72;;;;;;;;;;5096468;28;20272;-62
2021/09/22 00:56:22;;;;;;;3.13;2.78;;;;;;;;;;5094903;28;20027;-62
2021/09/22 00:58:48;;;;;;;2.92;2.72;;;;;;;;;;5094864;28;20514;-62
2021/09/22 01:01:14;;;;;;;3.03;2.83;;;;;;;;;;5094711;28;20162;-62
2021/09/22 01:03:39;;;;;;;3.10;2.88;;;;;;;;;;5096182;28;20029;-62
2021/09/22 01:06:05;;;;;;;3.28;3.08;;;;;;;;;;5095711;28;20022;-61
2021/09/22 01:08:31;;;;;;;3.22;3.03;;;;;;;;;;5095692;28;20073;-61
2021/09/22 01:10:57;;;;;;;3.00;2.75;;;;;;;;;;5095862;28;20031;-61
2021/09/22 01:13:23;;;;;;;3.30;3.00;;;;;;;;;;5095642;28;20028;-61
2021/09/22 01:15:49;;;;;;;3.22;3.00;;;;;;;;;;5094121;28;20039;-61
2021/09/22 01:18:19;;;;;;;3.47;3.15;;;;;;;;;;5095438;28;20020;-61
2021/09/22 01:20:46;;;;;;;3.25;2.97;;;;;;;;;;5094130;28;20479;-61
2021/09/22 01:23:17;;;;;;;3.13;2.75;;;;;;;;;;5094110;28;20020;-62
2021/09/22 01:25:46;;;;;;;3.35;3.05;;;;;;;;;;5094472;28;20072;-61
2021/09/22 01:28:13;;;;;;;3.17;2.88;;;;;;;;;;5094312;28;20020;-61
2021/09/22 01:30:42;;;;;;;3.47;3.17;;;;;;;;;;5094079;28;20368;-61
2021/09/22 01:33:09;;;;;;;4.00;3.40;;;;;;;;;;5095223;28;20031;-61
2021/09/22 01:35:48;;;;;;;3.70;3.05;;;;;;;;;;5093981;28;20040;-62
2021/09/22 01:38:27;;;;;;;3.53;3.17;;;;;;;;;;5094111;28;20028;-62
2021/09/22 01:41:08;;;;;;;2.75;2.55;;;;;;;;;;5093966;28;20024;-62
2021/09/22 01:43:37;;;;;;;4.13;3.25;;;;;;;;;;5092968;28;20043;-62
2021/09/22 01:46:03;;;;;;;3.60;3.30;;;;;;;;;;5094221;28;20415;-62
2021/09/22 01:48:32;;;;;;;3.53;3.00;;;;;;;;;;5076896;28;20051;-61
2021/09/22 01:50:58;;;;;;;3.85;3.30;;;;;;;;;;5093474;28;20448;-61
2021/09/22 01:53:25;;;;;;;3.45;3.15;;;;;;;;;;5092984;28;20122;-62
2021/09/22 01:55:52;;;;;;;3.50;3.20;;;;;;;;;;5093861;28;20097;-62
2021/09/22 01:58:19;;;;;;;3.10;2.88;;;;;;;;;;5093922;28;20031;-62
2021/09/22 02:00:51;;;;;;;3.20;2.95;;;;;;;;;;5093708;28;20036;-62
2021/09/22 02:03:26;;;;;;;3.00;2.80;;;;;;;;;;5093394;28;20020;-62
2021/09/22 02:06:02;;;;;;;3.38;2.83;;;;;;;;;;5093206;28;20135;-62
2021/09/22 02:08:28;;;;;;;2.95;2.67;;;;;;;;;;5093337;28;20032;-62
2021/09/22 02:11:00;;;;;;;3.30;3.10;;;;;;;;;;5093164;28;20039;-62
2021/09/22 02:13:27;;;;;;;2.90;2.70;;;;;;;;;;5093142;28;20035;-62
2021/09/22 02:15:52;;;;;;;3.00;2.80;;;;;;;;;;5093237;28;20422;-62
2021/09/22 02:18:41;;;;;;;2.90;2.60;;;;;;;;;;5086097;28;20028;-63
2021/09/22 02:21:10;;;;;;;2.47;2.30;;;;;;;;;;5094212;28;20077;-63
2021/09/22 02:23:40;;;;;;;2.83;2.53;;;;;;;;;;5093065;28;20012;-63
2021/09/22 02:26:07;;;;;;;3.25;2.97;;;;;;;;;;5092985;28;20059;-62
2021/09/22 02:28:37;;;;;;;2.38;2.28;;;;;;;;;;5093291;28;20406;-62
2021/09/22 02:31:03;;;;;;;2.67;2.47;;;;;;;;;;5093322;28;20032;-62
2021/09/22 02:33:39;;;;;;;2.63;2.42;;;;;;;;;;5093062;28;20364;-62
2021/09/22 02:36:05;;;;;;;3.90;2.75;;;;;;;;;;5092737;28;20093;-62
2021/09/22 02:38:50;;;;;;;3.13;2.80;;;;;;;;;;5094085;28;20021;-61
2021/09/22 02:41:16;;;;;;;2.70;2.50;;;;;;;;;;5092656;28;20024;-62
2021/09/22 02:43:41;;;;;;;2.35;2.17;;;;;;;;;;5093231;28;20032;-62
2021/09/22 02:46:07;;;;;;;2.67;2.47;;;;;;;;;;5092127;28;20040;-62
2021/09/22 02:48:47;;;;;;;2.47;2.17;;;;;;;;;;5093169;28;20048;-62
2021/09/22 02:51:13;;;;;;;2.72;2.47;;;;;;;;;;5092878;28;20047;-62
2021/09/22 02:53:39;;;;;;;3.50;3.20;;;;;;;;;;5092434;28;20024;-62
2021/09/22 02:56:05;;;;;;;3.00;2.63;;;;;;;;;;5092544;28;20056;-62
2021/09/22 02:58:30;;;;;;;2.92;2.50;;;;;;;;;;5092707;28;20047;-62
2021/09/22 03:01:02;;;;;;;2.22;2.13;;;;;;;;;;5092797;28;20367;-61
2021/09/22 03:03:28;;;;;;;3.03;2.83;;;;;;;;;;5092973;28;20055;-61
2021/09/22 03:05:53;;;;;;;2.50;2.30;;;;;;;;;;5091277;28;20101;-62
2021/09/22 03:08:19;;;;;;;3.00;2.80;;;;;;;;;;5092581;28;20464;-61
2021/09/22 03:10:45;;;;;;;3.00;2.80;;;;;;;;;;5093570;28;20116;-61
2021/09/22 03:13:10;;;;;;;2.70;2.50;;;;;;;;;;5092167;28;20035;-62
2021/09/22 03:15:36;;;;;;;2.95;2.75;;;;;;;;;;5092045;28;20016;-62
2021/09/22 03:18:03;;;;;;;2.95;2.58;;;;;;;;;;5092346;28;20475;-62
2021/09/22 03:20:29;;;;;;;2.67;2.47;;;;;;;;;;5092371;28;20030;-62
2021/09/22 03:22:55;;;;;;;3.05;2.85;;;;;;;;;;5093568;28;20031;-62
2021/09/22 03:25:28;;;;;;;2.67;2.47;;;;;;;;;;5091936;28;20383;-62
2021/09/22 03:27:54;;;;;;;2.92;2.72;;;;;;;;;;5092271;28;20056;-62
2021/09/22 03:30:20;;;;;;;2.72;2.53;;;;;;;;;;5092096;28;20397;-62
2021/09/22 03:32:51;;;;;;;2.60;2.40;;;;;;;;;;5092371;28;20122;-62
2021/09/22 03:35:18;;;;;;;2.83;2.63;;;;;;;;;;5092295;28;20123;-62
2021/09/22 03:37:45;;;;;;;2.65;2.45;;;;;;;;;;5092309;28;20012;-62
2021/09/22 03:40:12;;;;;;;2.67;2.47;;;;;;;;;;5092074;28;20506;-63
2021/09/22 03:42:37;;;;;;;2.45;2.25;;;;;;;;;;5093308;28;20409;-62
2021/09/22 03:45:06;;;;;;;2.92;2.72;;;;;;;;;;5091920;28;20055;-62
2021/09/22 03:47:31;;;;;;;3.17;2.88;;;;;;;;;;5091988;28;20567;-62
2021/09/22 03:49:58;;;;;;;2.88;2.67;;;;;;;;;;5091931;28;20114;-62
2021/09/22 03:52:35;;;;;;;3.20;3.00;;;;;;;;;;5091906;28;20020;-62
2021/09/22 03:55:00;;;;;;;3.45;3.15;;;;;;;;;;5093115;28;20036;-62
2021/09/22 03:57:26;;;;;;;2.80;2.60;;;;;;;;;;5093180;28;20017;-62
2021/09/22 03:59:52;;;;;;;2.95;2.75;;;;;;;;;;5092143;28;20032;-62
2021/09/22 04:02:18;;;;;;;2.95;2.63;;;;;;;;;;5093277;28;20020;-62
2021/09/22 04:04:44;;;;;;;2.90;2.70;;;;;;;;;;5091887;28;20024;-62
2021/09/22 04:07:09;;;;;;;3.25;3.03;;;;;;;;;;5075111;28;20107;-62
2021/09/22 04:09:35;;;;;;;2.88;2.67;;;;;;;;;;5091932;28;20695;-62
2021/09/22 04:12:01;;;;;;;2.70;2.50;;;;;;;;;;5092746;28;20061;-62
2021/09/22 04:14:27;;;;;;;3.15;2.90;;;;;;;;;;5091695;28;20115;-62
2021/09/22 04:16:52;;;;;;;2.97;2.78;;;;;;;;;;5093730;28;20051;-62
2021/09/22 04:19:18;;;;;;;3.03;2.83;;;;;;;;;;5095452;28;20127;-61
2021/09/22 04:21:44;;;;;;;2.80;2.60;;;;;;;;;;5095465;28;20042;-61
2021/09/22 04:24:10;;;;;;;2.88;2.67;;;;;;;;;;5095633;28;20024;-61
2021/09/22 04:26:37;;;;;;;2.35;2.25;;;;;;;;;;5095301;28;20107;-61
2021/09/22 04:29:09;;;;;;;2.92;2.72;;;;;;;;;;5095123;28;20382;-61
2021/09/22 04:31:53;;;;;;;4.50;2.70;;;;;;;;;;5096536;28;20089;-61
2021/09/22 04:34:37;;;;;;;2.83;2.63;;;;;;;;;;5096887;28;20043;-61
2021/09/22 04:37:21;;;;;;;2.78;2.55;;;;;;;;;;5096195;28;20113;-61
2021/09/22 04:40:06;;;;;;;3.20;2.85;;;;;;;;;;5096702;28;20034;-61
2021/09/22 04:42:50;;;;;;;2.90;2.63;;;;;;;;;;5095378;28;20077;-62
2021/09/22 04:45:39;;;;;;;2.90;2.70;;;;;;;;;;5066574;28;20089;-61
2021/09/22 04:48:32;;;;;;;2.83;2.50;;;;;;;;;;5071424;28;20035;-61
2021/09/22 04:51:16;;;;;;;3.38;3.10;;;;;;;;;;5096374;28;20161;-61
2021/09/22 04:54:17;;;;;;;3.17;2.90;;;;;;;;;;5033881;28;20065;-62
2021/09/22 04:57:01;;;;;;;3.72;3.05;;;;;;;;;;5091187;28;20089;-62
2021/09/22 04:59:45;;;;;;;3.53;3.22;;;;;;;;;;5096154;28;20413;-61
2021/09/22 05:02:29;;;;;;;3.28;2.97;;;;;;;;;;5096329;28;20026;-61
2021/09/22 05:05:33;;;;;;;2.70;2.50;;;;;;;;;;5033341;28;20044;-62
2021/09/22 05:08:17;;;;;;;3.72;3.42;;;;;;;;;;5033958;28;20072;-61
2021/09/22 05:11:20;;;;;;;3.22;3.03;;;;;;;;;;5020089;28;20048;-62
2021/09/22 05:14:04;;;;;;;3.58;3.13;;;;;;;;;;5033781;28;20040;-61
2021/09/22 05:16:47;;;;;;;3.03;2.83;;;;;;;;;;5033868;28;20369;-61
2021/09/22 05:19:37;;;;;;;5.10;3.40;;;;;;;;;;5064889;28;20043;-61
2021/09/22 05:22:22;;;;;;;3.30;3.00;;;;;;;;;;5095634;28;20034;-61
2021/09/22 05:25:06;;;;;;;3.50;3.20;;;;;;;;;;5095515;28;20089;-61
2021/09/22 05:27:50;;;;;;;3.55;3.25;;;;;;;;;;5094412;28;20039;-61
2021/09/22 05:30:34;;;;;;;3.10;2.90;;;;;;;;;;5095312;28;20502;-61
2021/09/22 05:33:18;;;;;;;2.97;2.78;;;;;;;;;;5094982;28;20101;-61
2021/09/22 05:36:02;;;;;;;3.22;3.03;;;;;;;;;;5095043;28;20039;-61
2021/09/22 05:38:46;;;;;;;4.28;3.83;;;;;;;;;;5095375;28;20047;-61
2021/09/22 05:41:30;;;;;;;4.03;3.63;;;;;;;;;;5095189;28;20081;-60
2021/09/22 05:44:14;;;;;;;3.90;3.60;;;;;;;;;;5094487;28;20097;-61
2021/09/22 05:46:58;;;;;;;3.83;3.53;;;;;;;;;;5095126;28;20042;-61
2021/09/22 05:49:42;;;;;;;3.75;3.45;;;;;;;;;;5093877;28;20100;-60
2021/09/22 05:52:26;;;;;;;3.53;3.28;;;;;;;;;;5094994;28;20047;-61
2021/09/22 05:55:10;;;;;;;4.28;3.97;;;;;;;;;;5094741;28;20085;-61
2021/09/22 05:57:54;;;;;;;3.95;3.65;;;;;;;;;;5094673;28;20552;-61
2021/09/22 06:00:38;;;;;;;5.25;4.05;;;;;;;;;;5094763;28;20034;-61
2021/09/22 06:03:22;;;;;;;3.90;3.60;;;;;;;;;;5094725;28;20035;-61
2021/09/22 06:06:08;;;;;;;5.30;4.25;;;;;;;;;;5062710;28;20535;-61
2021/09/22 06:08:57;;;;;;;4.75;4.25;;;;;;;;;;5094294;28;20387;-61
2021/09/22 06:11:36;;;;;;;5.97;4.68;;;;;;;;;;5092807;28;20063;-61
2021/09/22 06:14:07;;;;;;;8.02;5.57;;;;;;;;;;5092823;28;20028;-62
2021/09/22 06:16:33;;;;;;;5.47;5.03;;;;;;;;;;5094083;28;20020;-61
2021/09/22 06:19:25;;;;;;;4.57;3.95;;;;;;;;;;5091070;28;20028;-61
2021/09/22 06:21:50;;;;;;;5.57;4.85;;;;;;;;;;5093988;28;20024;-61
2021/09/22 06:24:19;;;;;;;5.53;5.03;;;;;;;;;;5094043;28;20016;-61
2021/09/22 06:26:59;;;;;;;6.18;5.13;;;;;;;;;;5092807;28;20053;-61
2021/09/22 06:29:25;;;;;;;7.60;5.30;;;;;;;;;;5093476;28;20486;-61
2021/09/22 06:31:50;;;;;;;9.30;5.70;;;;;;;;;;5094255;28;20107;-61
2021/09/22 06:34:35;;;;;;;8.15;5.40;;;;;;;;;;5092349;28;20040;-61
2021/09/22 06:37:01;;;;;;;6.43;5.40;;;;;;;;;;5092625;28;20029;-61
2021/09/22 06:39:27;;;;;;;5.03;4.60;;;;;;;;;;5092431;28;20383;-61
2021/09/22 06:41:55;;;;;;;4.65;4.25;;;;;;;;;;5092455;28;20028;-61
2021/09/22 06:44:23;;;;;;;5.10;4.60;;;;;;;;;;5092003;28;20048;-61
2021/09/22 06:46:49;;;;;;;4.40;4.00;;;;;;;;;;5093641;28;20484;-61
2021/09/22 06:49:14;;;;;;;4.45;4.05;;;;;;;;;;5093550;28;20020;-61
2021/09/22 06:51:40;;;;;;;5.45;3.95;;;;;;;;;;5092847;28;20060;-61
2021/09/22 06:54:06;;;;;;;4.28;3.97;;;;;;;;;;5092824;28;20020;-61
2021/09/22 06:56:32;;;;;;;4.40;4.00;;;;;;;;;;5092774;28;20028;-61
2021/09/22 06:58:57;;;;;;;4.28;3.97;;;;;;;;;;5091580;28;20016;-61
2021/09/22 07:01:23;;;;;;;4.72;4.05;;;;;;;;;;5092744;28;20360;-61
2021/09/22 07:03:48;;;;;;;4.10;3.70;;;;;;;;;;5092727;28;20074;-61
2021/09/22 07:06:14;;;;;;;4.25;3.85;;;;;;;;;;5093044;28;20024;-62
2021/09/22 07:08:40;;;;;;;4.30;3.97;;;;;;;;;;5093317;28;20023;-62
2021/09/22 07:11:06;;;;;;;4.00;3.70;;;;;;;;;;5092048;28;20024;-62
2021/09/22 07:13:34;;;;;;;3.10;2.90;;;;;;;;;;5093279;28;20387;-61
2021/09/22 07:15:59;;;;;;;4.05;3.25;;;;;;;;;;5093083;28;20481;-62
2021/09/22 07:18:24;;;;;;;3.63;3.22;;;;;;;;;;5092037;28;20073;-62
2021/09/22 07:20:50;;;;;;;4.55;3.00;;;;;;;;;;5093262;28;20402;-62
2021/09/22 07:23:16;;;;;;;2.97;2.55;;;;;;;;;;5092449;28;20108;-62
2021/09/22 07:25:42;;;;;;;4.95;3.80;;;;;;;;;;5093044;28;20063;-62
2021/09/22 07:28:09;;;;;;;2.83;2.13;;;;;;;;;;5093003;28;20034;-62
2021/09/22 07:30:34;;;;;;;2.90;1.70;;;;;;;;;;5092973;28;20024;-62
2021/09/22 07:33:00;;;;;;;16.05;9.82;;;;;;;;;;5092923;28;20024;-62
2021/09/22 07:35:26;;;;;;;13.80;9.82;;;;;;;;;;5092947;28;20077;-62
2021/09/22 07:37:52;;;;;;;101.45;38.47;;;;;;;;;;5093099;28;20016;-62
2021/09/22 07:40:18;;;;;;;12.02;5.82;;;;;;;;;;5093052;28;20035;-62
2021/09/22 07:42:43;;;;;;;72.78;30.70;;;;;;;;;;5091694;28;20020;-62
2021/09/22 07:45:10;;;;;;;12.90;7.32;;;;;;;;;;5092726;28;20495;-62
2021/09/22 07:47:35;;;;;;;66.55;35.13;;;;;;;;;;5093008;28;20066;-62
2021/09/22 07:50:01;;;;;;;93.97;31.88;;;;;;;;;;5093020;28;20416;-62
2021/09/22 07:52:26;;;;;;;39.88;18.73;;;;;;;;;;5096191;28;20099;-62
2021/09/22 07:54:52;;;;;;;50.50;26.75;;;;;;;;;;5096898;28;20039;-62
2021/09/22 07:57:20;;;;;;;33.90;22.98;;;;;;;;;;5096784;28;20105;-62
2021/09/22 07:59:46;;;;;;;201.93;83.38;;;;;;;;;;5096867;28;20123;-61
2021/09/22 08:02:11;;;;;;;99.57;61.25;;;;;;;;;;5095443;28;20095;-62
2021/09/22 08:04:37;;;;;;;83.80;25.02;;;;;;;;;;5096671;28;20081;-61
2021/09/22 08:07:03;;;;;;;29.20;14.27;;;;;;;;;;5096719;28;20019;-61
2021/09/22 08:09:29;;;;;;;341.58;225.90;;;;;;;;;;5096685;28;20064;-61
2021/09/22 08:11:55;;;;;;;9.77;7.28;;;;;;;;;;5096484;28;20016;-61
2021/09/22 08:14:21;;;;;;;27.48;22.63;;;;;;;;;;5096481;28;20528;-61
2021/09/22 08:16:48;;;;;;;22.98;14.48;;;;;;;;;;5096620;28;20024;-61
2021/09/22 08:19:14;;;;;;;23.88;16.35;;;;;;;;;;5097399;28;20032;-61
2021/09/22 08:21:40;;;;;;;5.13;4.72;;;;;;;;;;5095299;28;20027;-62
2021/09/22 08:24:05;;;;;;;4.18;3.85;;;;;;;;;;5096532;28;20031;-61
2021/09/22 08:26:31;;;;;;;9.63;8.50;;;;;;;;;;5096642;28;20038;-61
2021/09/22 08:28:56;;;;;;;44.25;27.13;;;;;;;;;;5096582;28;20024;-61
2021/09/22 08:31:22;;;;;;;41.03;33.80;;;;;;;;;;5096321;28;20460;-61
2021/09/22 08:33:48;;;;;;;25.00;19.80;;;;;;;;;;5096268;28;20046;-60
2021/09/22 08:36:13;;;;;;;43.30;38.65;;;;;;;;;;5095905;28;20390;-61
2021/09/22 08:38:39;;;;;;;25.60;22.85;;;;;;;;;;5095911;28;20028;-60
2021/09/22 08:41:05;;;;;;;15.05;13.57;;;;;;;;;;5094656;28;20016;-61
2021/09/22 08:43:30;;;;;;;14.18;12.73;;;;;;;;;;5095703;28;20044;-61
2021/09/22 08:45:56;;;;;;;8.73;7.15;;;;;;;;;;5096060;28;20074;-61
2021/09/22 08:48:24;;;;;;;4.80;4.40;;;;;;;;;;5095884;28;20032;-61
2021/09/22 08:50:50;;;;;;;7.07;6.53;;;;;;;;;;5095982;28;20020;-61
2021/09/22 08:53:16;;;;;;;14.80;12.63;;;;;;;;;;5095661;28;20031;-61
2021/09/22 08:55:41;;;;;;;16.42;12.50;;;;;;;;;;5095671;28;20012;-61
2021/09/22 08:58:07;;;;;;;5.15;4.75;;;;;;;;;;5095591;28;20024;-62
2021/09/22 09:00:32;;;;;;;3.30;3.05;;;;;;;;;;5095566;28;20459;-58
2021/09/22 09:03:04;;;;;;;13.48;9.90;;;;;;;;;;5095523;28;20032;-61
2021/09/22 09:05:30;;;;;;;4.10;3.72;;;;;;;;;;5095443;28;20387;-61
2021/09/22 09:07:57;;;;;;;57.53;26.08;;;;;;;;;;5095588;28;20020;-61
2021/09/22 09:10:23;;;;;;;109.28;41.05;;;;;;;;;;5096096;28;20048;-61
2021/09/22 09:12:58;;;;;;;106.85;43.03;;;;;;;;;;5095357;28;20472;-61
2021/09/22 09:15:28;;;;;;;21.05;10.95;;;;;;;;;;5095186;28;20501;-60
2021/09/22 09:17:58;;;;;;;501.02;172.10;;;;;;;;;;5095819;28;20032;-61
2021/09/22 09:20:26;;;;;;;706.85;291.70;;;;;;;;;;5095018;28;20030;-60
2021/09/22 09:23:09;;;;;;;1187.30;431.90;;;;;;;;;;5095192;28;20397;-61
2021/09/22 09:25:39;;;;;;;1216.07;452.17;;;;;;;;;;5095173;28;20506;-61
2021/09/22 09:28:24;;;;;;;1887.05;670.70;;;;;;;;;;5094245;28;20032;-61
2021/09/22 09:30:51;;;;;;;1999.90;756.00;;;;;;;;;;5094118;28;20481;-61
2021/09/22 09:33:35;;;;;;;934.83;367.08;;;;;;;;;;5094408;28;20078;-61
2021/09/22 09:36:19;;;;;;;1013.95;357.58;;;;;;;;;;5094408;28;20066;-61
2021/09/22 09:39:12;;;;;;;507.02;176.32;;;;;;;;;;5094895;28;20031;-61
2021/09/22 09:41:39;;;;;;;854.53;326.38;;;;;;;;;;5089847;28;20096;-61
2021/09/22 09:44:09;;;;;;;442.77;149.27;;;;;;;;;;5094317;28;20043;-61
2021/09/22 09:46:37;;;;;;;56.25;22.30;;;;;;;;;;5093458;28;20058;-61
2021/09/22 09:49:02;;;;;;;26.10;12.40;;;;;;;;;;5093519;28;20069;-61
2021/09/22 09:51:32;;;;;;;89.40;30.23;;;;;;;;;;5094620;28;20543;-61
2021/09/22 09:54:05;;;;;;;456.30;170.73;;;;;;;;;;5094497;28;20024;-62
2021/09/22 09:56:33;;;;;;;18.17;10.32;;;;;;;;;;5094408;28;20039;-61
2021/09/22 09:58:58;;;;;;;31.20;14.23;;;;;;;;;;5094573;28;20039;-61
2021/09/22 10:01:34;;;;;;;193.98;66.05;;;;;;;;;;5094436;28;20475;-61
2021/09/22 10:04:00;;;;;;;508.92;184.85;;;;;;;;;;5094486;28;20028;-61
2021/09/22 10:06:26;;;;;;;695.72;268.23;;;;;;;;;;5093020;28;20020;-62
2021/09/22 10:08:51;;;;;;;1071.90;472.20;;;;;;;;;;5094227;28;20020;-61
2021/09/22 10:11:16;;;;;;;4.88;4.50;;;;;;;;;;5094247;28;20024;-61
2021/09/22 10:13:42;;;;;;;22.67;14.82;;;;;;;;;;5092561;28;20032;-61
2021/09/22 10:16:08;;;;;;;138.15;46.38;;;;;;;;;;5094252;28;20027;-61
2021/09/22 10:18:34;;;;;;;328.45;129.25;;;;;;;;;;5092825;28;20479;-62
2021/09/22 10:21:00;;;;;;;164.48;63.40;;;;;;;;;;5092702;28;20069;-61
2021/09/22 10:23:26;;;;;;;25.13;13.40;;;;;;;;;;5094000;28;20116;-61
2021/09/22 10:25:52;;;;;;;92.10;43.25;;;;;;;;;;5093944;28;20103;-61
2021/09/22 10:28:32;;;;;;;195.02;82.00;;;;;;;;;;5093975;28;20475;-61
2021/09/22 10:30:58;;;;;;;150.00;77.85;;;;;;;;;;5093986;28;20387;-61
2021/09/22 10:33:24;;;;;;;238.25;95.53;;;;;;;;;;5092582;28;20027;-61
2021/09/22 10:35:55;;;;;;;63.10;28.48;;;;;;;;;;5092390;28;20119;-61
2021/09/22 10:38:20;;;;;;;207.93;101.22;;;;;;;;;;5093724;28;20435;-61
2021/09/22 10:40:49;;;;;;;112.25;60.55;;;;;;;;;;5093724;28;20024;-61
2021/09/22 10:43:16;;;;;;;106.97;57.60;;;;;;;;;;5093177;28;20032;-61
2021/09/22 10:45:46;;;;;;;75.78;45.33;;;;;;;;;;5092577;28;20399;-61
2021/09/22 10:48:23;;;;;;;22.80;15.38;;;;;;;;;;5092627;28;20020;-61
2021/09/22 10:50:55;;;;;;;46.30;29.23;;;;;;;;;;5092746;28;20089;-61
2021/09/22 10:53:32;;;;;;;37.25;26.67;;;;;;;;;;5093457;28;20387;-61
2021/09/22 10:56:10;;;;;;;20.30;12.65;;;;;;;;;;5092168;28;20028;-61
2021/09/22 10:58:49;;;;;;;17.17;12.30;;;;;;;;;;5093557;28;20020;-61
2021/09/22 11:01:34;;;;;;;38.25;23.08;;;;;;;;;;5093305;28;20111;-61
2021/09/22 11:04:00;;;;;;;23.08;11.88;;;;;;;;;;5092224;28;20031;-61
2021/09/22 11:09:10;;;;;;;33.85;17.95;;;;;;;;;;5093326;28;20035;-61
2021/09/22 11:12:01;;;;;;;21.13;19.08;;;;;;;;;;5093401;28;20024;-61
2021/09/22 11:14:29;;;;;;;5.45;4.97;;;;;;;;;;5093321;28;20039;-61
2021/09/22 11:16:59;;;;;;;5.53;5.13;;;;;;;;;;5093274;28;20016;-61
2021/09/22 11:19:25;;;;;;;9.43;7.35;;;;;;;;;;5093180;28;20114;-61
2021/09/22 11:21:50;;;;;;;6.05;5.45;;;;;;;;;;5093341;28;20065;-61
2021/09/22 11:24:18;;;;;;;14.75;9.70;;;;;;;;;;5093168;28;20464;-60
2021/09/22 11:26:51;;;;;;;5.40;4.60;;;;;;;;;;5095348;28;20095;-62
2021/09/22 11:29:29;;;;;;;4.72;4.32;;;;;;;;;;5097290;28;20039;-61
2021/09/22 11:31:55;;;;;;;5.63;4.53;;;;;;;;;;5097195;28;20174;-60
2021/09/22 11:34:27;;;;;;;4.88;4.47;;;;;;;;;;5097260;28;20099;-60
2021/09/22 11:37:02;;;;;;;4.05;3.70;;;;;;;;;;5097304;28;20028;-61
2021/09/22 11:39:28;;;;;;;3.97;3.50;;;;;;;;;;5097131;28;20028;-61
2021/09/22 11:41:54;;;;;;;14.10;7.82;;;;;;;;;;5097137;28;20019;-62
2021/09/22 11:44:24;;;;;;;4.25;3.90;;;;;;;;;;5096935;28;20096;-61
2021/09/22 11:46:54;;;;;;;5.23;3.67;;;;;;;;;;5097102;28;20055;-61
2021/09/22 11:49:19;;;;;;;16.17;7.43;;;;;;;;;;5097100;28;20476;-61
2021/09/22 11:51:45;;;;;;;8.82;5.65;;;;;;;;;;5096956;28;20019;-61
2021/09/22 11:54:19;;;;;;;4.93;3.60;;;;;;;;;;5096769;28;20062;-61
2021/09/22 11:56:45;;;;;;;3.63;3.33;;;;;;;;;;5096339;28;20046;-61
2021/09/22 11:59:10;;;;;;;3.90;3.60;;;;;;;;;;5096943;28;20017;-61
2021/09/22 12:01:36;;;;;;;3.70;3.40;;;;;;;;;;5096868;28;20024;-61
2021/09/22 12:04:01;;;;;;;5.55;4.30;;;;;;;;;;5096832;28;20359;-61
2021/09/22 12:06:27;;;;;;;3.53;3.17;;;;;;;;;;5096704;28;20031;-61
2021/09/22 12:08:53;;;;;;;5.20;4.80;;;;;;;;;;5096778;28;20016;-61
2021/09/22 12:11:20;;;;;;;4.65;4.10;;;;;;;;;;5096548;28;20043;-61
2021/09/22 12:13:50;;;;;;;4.53;4.13;;;;;;;;;;5095289;28;20077;-62
2021/09/22 12:16:16;;;;;;;3.30;3.00;;;;;;;;;;5096391;28;20031;-61
2021/09/22 12:18:48;;;;;;;3.20;2.90;;;;;;;;;;5096495;28;20017;-62
2021/09/22 12:21:14;;;;;;;2.55;2.45;;;;;;;;;;5096300;28;20036;-61
2021/09/22 12:23:39;;;;;;;2.80;2.60;;;;;;;;;;5096475;28;20391;-61
2021/09/22 12:26:06;;;;;;;4.00;3.58;;;;;;;;;;5096351;28;20112;-60
2021/09/22 12:28:31;;;;;;;3.00;2.67;;;;;;;;;;5096296;28;20165;-60
2021/09/22 12:30:57;;;;;;;4.85;2.92;;;;;;;;;;5096108;28;20523;-62
2021/09/22 12:33:24;;;;;;;2.97;2.88;;;;;;;;;;5096187;28;20019;-62
2021/09/22 12:35:50;;;;;;;4.18;3.88;;;;;;;;;;5096089;28;20024;-61
2021/09/22 12:38:16;;;;;;;4.22;3.78;;;;;;;;;;5095655;28;20008;-61
2021/09/22 12:40:43;;;;;;;3.42;3.22;;;;;;;;;;5096007;28;20107;-61
2021/09/22 12:43:21;;;;;;;4.05;3.85;;;;;;;;;;5095491;28;20051;-62
2021/09/22 12:45:46;;;;;;;4.97;4.43;;;;;;;;;;5096068;28;20027;-62
2021/09/22 12:48:20;;;;;;;6.85;6.18;;;;;;;;;;5096022;28;20394;-61
2021/09/22 12:50:46;;;;;;;4.40;4.00;;;;;;;;;;5095585;28;20039;-61
2021/09/22 12:53:13;;;;;;;3.90;3.60;;;;;;;;;;5095882;28;20032;-61
2021/09/22 12:55:39;;;;;;;4.93;3.40;;;;;;;;;;5095696;28;20063;-60
2021/09/22 12:58:04;;;;;;;4.45;3.40;;;;;;;;;;5095804;28;20048;-60
2021/09/22 13:00:33;;;;;;;3.85;3.47;;;;;;;;;;5095663;28;20056;-61
2021/09/22 13:03:28;;;;;;;3.47;3.17;;;;;;;;;;5095619;28;20016;-61
2021/09/22 13:06:06;;;;;;;99.43;51.45;;;;;;;;;;5081925;28;20040;-61
2021/09/22 13:08:52;;;;;;;45.92;25.58;;;;;;;;;;5095550;28;20052;-61
2021/09/22 13:11:19;;;;;;;48.95;19.10;;;;;;;;;;5095366;28;20391;-61
2021/09/22 13:13:46;;;;;;;26.10;12.93;;;;;;;;;;5094221;28;20016;-61
2021/09/22 13:16:34;;;;;;;7.30;4.93;;;;;;;;;;5093984;28;20028;-61
2021/09/22 13:19:01;;;;;;;4.78;4.32;;;;;;;;;;5095503;28;20495;-61
2021/09/22 13:21:27;;;;;;;5.22;4.07;;;;;;;;;;5095293;28;20103;-61
2021/09/22 13:23:54;;;;;;;4.72;4.32;;;;;;;;;;5093866;28;20067;-61
2021/09/22 13:26:21;;;;;;;21.58;11.00;;;;;;;;;;5095053;28;20433;-61
2021/09/22 13:28:47;;;;;;;10.82;7.00;;;;;;;;;;5095209;28;20024;-61
2021/09/22 13:31:13;;;;;;;6.40;5.18;;;;;;;;;;5093872;28;20027;-61
2021/09/22 13:33:39;;;;;;;4.15;3.85;;;;;;;;;;5095063;28;20472;-62
2021/09/22 13:36:05;;;;;;;6.35;4.57;;;;;;;;;;5094917;28;20016;-61
2021/09/22 13:38:31;;;;;;;5.47;4.50;;;;;;;;;;5094953;28;20028;-61
2021/09/22 13:40:56;;;;;;;6.25;4.47;;;;;;;;;;5094770;28;20027;-61
2021/09/22 13:43:25;;;;;;;4.30;3.90;;;;;;;;;;5094261;28;20403;-61
2021/09/22 13:45:52;;;;;;;4.13;3.67;;;;;;;;;;5095087;28;20380;-61
2021/09/22 13:48:17;;;;;;;4.35;4.05;;;;;;;;;;5093941;28;20486;-61
2021/09/22 13:50:43;;;;;;;4.20;3.90;;;;;;;;;;5094553;28;20028;-61
2021/09/22 13:53:08;;;;;;;3.85;3.55;;;;;;;;;;5094727;28;20027;-62
2021/09/22 13:55:34;;;;;;;5.82;4.25;;;;;;;;;;5094486;28;20012;-61
2021/09/22 13:57:59;;;;;;;4.63;4.20;;;;;;;;;;5094409;28;20052;-61
2021/09/22 14:00:25;;;;;;;7.78;4.55;;;;;;;;;;5094403;28;20019;-61
2021/09/22 14:02:50;;;;;;;16.48;7.93;;;;;;;;;;5094620;28;20444;-61
2021/09/22 14:05:16;;;;;;;5.43;4.78;;;;;;;;;;5093122;28;20020;-61
2021/09/22 14:07:43;;;;;;;4.05;3.55;;;;;;;;;;5090077;28;20403;-61
2021/09/22 14:10:08;;;;;;;4.20;3.90;;;;;;;;;;5090861;28;20107;-61
2021/09/22 14:12:35;;;;;;;4.03;3.60;;;;;;;;;;5089337;28;20135;-61
2021/09/22 14:15:00;;;;;;;5.07;4.57;;;;;;;;;;5090758;28;20065;-61
2021/09/22 14:17:26;;;;;;;5.25;4.15;;;;;;;;;;5089440;28;20025;-61
2021/09/22 14:19:51;;;;;;;4.93;4.50;;;;;;;;;;5090801;28;20024;-61
2021/09/22 14:22:17;;;;;;;5.88;4.43;;;;;;;;;;5091420;28;20479;-61
2021/09/22 14:24:42;;;;;;;4.82;4.07;;;;;;;;;;5092803;28;20081;-61
2021/09/22 14:27:08;;;;;;;4.65;4.25;;;;;;;;;;5093655;28;20073;-61
2021/09/22 14:29:34;;;;;;;4.53;4.20;;;;;;;;;;5093702;28;20069;-61
2021/09/22 14:32:00;;;;;;;7.65;4.93;;;;;;;;;;5092784;28;20084;-61
2021/09/22 14:34:25;;;;;;;4.70;4.30;;;;;;;;;;5093879;28;20072;-61
2021/09/22 14:36:56;;;;;;;4.75;4.35;;;;;;;;;;5093901;28;20035;-61
2021/09/22 14:39:22;;;;;;;4.40;4.00;;;;;;;;;;5093756;28;20075;-61
2021/09/22 14:41:47;;;;;;;5.70;4.57;;;;;;;;;;5093336;28;20471;-61
2021/09/22 14:44:13;;;;;;;7.72;5.35;;;;;;;;;;5093204;28;20071;-62
2021/09/22 14:46:39;;;;;;;4.82;4.30;;;;;;;;;;5093686;28;20024;-61
2021/09/22 14:49:05;;;;;;;4.93;4.45;;;;;;;;;;5093698;28;20052;-61
2021/09/22 14:51:32;;;;;;;6.05;5.30;;;;;;;;;;5093596;28;20027;-61
2021/09/22 14:53:58;;;;;;;7.70;5.88;;;;;;;;;;5093301;28;20471;-61